createdAt,value
2018-06-28T00:00:57.569Z,102178.36
2018-06-28T00:03:26.204Z,102174.94
2018-06-28T00:05:54.813Z,102176.47
2018-06-28T00:08:23.335Z,102173.02
2018-06-28T00:10:51.899Z,102176.75
2018-06-28T00:13:20.491Z,102162.88
2018-06-28T00:15:49.024Z,102178.37
2018-06-28T00:18:17.648Z,102176.44
2018-06-28T00:20:46.179Z,102177.59
2018-06-28T00:23:14.714Z,102173.39
2018-06-28T00:25:43.244Z,102166.98
2018-06-28T00:28:11.777Z,102166.67
2018-06-28T00:30:40.403Z,102164.18
2018-06-28T00:33:09.004Z,102157.30
2018-06-28T00:35:37.627Z,102157.86
2018-06-28T00:38:06.211Z,102160.62
2018-06-28T00:40:34.817Z,102153.10
2018-06-28T00:43:03.400Z,102152.14
2018-06-28T00:45:32.024Z,102152.05
2018-06-28T00:48:00.745Z,102151.95
2018-06-28T00:50:29.317Z,102149.19
2018-06-28T00:52:57.912Z,102151.77
2018-06-28T00:55:26.600Z,102149.09
2018-06-28T00:57:55.185Z,102146.42
2018-06-28T01:00:23.764Z,102145.64
2018-06-28T01:02:52.287Z,102147.94
2018-06-28T01:05:20.827Z,102147.57
2018-06-28T01:07:49.512Z,102137.98
2018-06-28T01:10:18.197Z,102137.24
2018-06-28T01:12:46.905Z,102137.43
2018-06-28T01:15:15.519Z,102140.00
2018-06-28T01:17:44.153Z,102140.28
2018-06-28T01:20:12.838Z,102143.52
2018-06-28T01:22:41.513Z,102139.31
2018-06-28T01:25:10.104Z,102140.73
2018-06-28T01:27:38.643Z,102132.41
2018-06-28T01:30:07.822Z,102135.25
2018-06-28T01:32:36.467Z,102138.89
2018-06-28T01:35:05.459Z,102138.89
2018-06-28T01:37:34.145Z,102142.81
2018-06-28T01:40:02.730Z,102142.72
2018-06-28T01:42:43.135Z,102138.34
2018-06-28T01:45:11.720Z,102133.55
2018-06-28T01:47:40.291Z,102135.84
2018-06-28T01:50:08.892Z,102141.56
2018-06-28T01:52:37.417Z,102138.80
2018-06-28T01:55:06.206Z,102138.71
2018-06-28T01:57:34.788Z,102136.59
2018-06-28T02:00:03.494Z,102131.66
2018-06-28T02:02:32.016Z,102139.77
2018-06-28T02:05:00.598Z,102133.73
2018-06-28T02:07:29.222Z,102135.62
2018-06-28T02:09:57.867Z,102135.42
2018-06-28T02:12:26.427Z,102136.53
2018-06-28T02:14:55.077Z,102126.58
2018-06-28T02:17:23.703Z,102128.09
2018-06-28T02:19:52.283Z,102130.57
2018-06-28T02:22:20.816Z,102124.63
2018-06-28T02:24:49.479Z,102126.55
2018-06-28T02:27:18.095Z,102124.98
2018-06-28T02:29:46.675Z,102118.88
2018-06-28T02:32:15.261Z,102119.98
2018-06-28T02:34:43.840Z,102122.09
2018-06-28T02:37:12.372Z,102116.05
2018-06-28T02:39:40.987Z,102117.47
2018-06-28T02:42:09.640Z,102104.67
2018-06-28T02:44:38.231Z,102103.92
2018-06-28T02:47:06.803Z,102103.51
2018-06-28T02:49:35.451Z,102109.81
2018-06-28T02:52:04.290Z,102106.27
2018-06-28T02:54:32.809Z,102110.36
2018-06-28T02:57:01.299Z,102110.86
2018-06-28T02:59:29.819Z,102114.37
2018-06-28T03:01:58.315Z,102110.36
2018-06-28T03:04:26.884Z,102109.98
2018-06-28T03:06:55.387Z,102111.70
2018-06-28T03:09:24.006Z,102115.33
2018-06-28T03:11:52.585Z,102110.36
2018-06-28T03:14:21.119Z,102106.77
2018-06-28T03:16:49.754Z,102108.85
2018-06-28T03:19:18.250Z,102107.52
2018-06-28T03:21:46.867Z,102108.30
2018-06-28T03:24:15.411Z,102106.33
2018-06-28T03:26:43.935Z,102107.39
2018-06-28T03:29:12.563Z,102109.89
2018-06-28T03:31:41.145Z,102106.26
2018-06-28T03:34:09.780Z,102102.25
2018-06-28T03:36:38.793Z,102096.91
2018-06-28T03:39:10.858Z,102100.36
2018-06-28T03:41:39.599Z,102096.73
2018-06-28T03:44:08.571Z,102102.36
2018-06-28T03:46:37.084Z,102102.67
2018-06-28T03:49:05.699Z,102098.08
2018-06-28T03:51:34.579Z,102092.97
2018-06-28T03:54:03.508Z,102091.83
2018-06-28T03:56:32.095Z,102091.05
2018-06-28T03:59:00.677Z,102089.95
2018-06-28T04:01:29.316Z,102087.84
2018-06-28T04:03:58.152Z,102085.89
2018-06-28T04:06:26.873Z,102086.58
2018-06-28T04:08:55.491Z,102087.14
2018-06-28T04:11:24.000Z,102084.69
2018-06-28T04:13:52.639Z,102089.07
2018-06-28T04:16:21.227Z,102086.21
2018-06-28T04:18:49.852Z,102083.28
2018-06-28T04:21:18.749Z,102079.35
2018-06-28T04:23:47.274Z,102078.48
2018-06-28T04:26:15.830Z,102083.07
2018-06-28T04:28:44.389Z,102090.73
2018-06-28T04:31:13.466Z,102086.42
2018-06-28T04:33:42.065Z,102079.14
2018-06-28T04:36:10.647Z,102073.56
2018-06-28T04:38:39.280Z,102081.36
2018-06-28T04:41:07.788Z,102082.97
2018-06-28T04:43:36.355Z,102083.70
2018-06-28T04:46:05.183Z,102078.20
2018-06-28T04:48:33.766Z,102074.91
2018-06-28T04:51:02.344Z,102072.38
2018-06-28T04:53:30.933Z,102071.17
2018-06-28T04:55:59.571Z,102071.31
2018-06-28T04:58:28.156Z,102071.78
2018-06-28T05:00:56.787Z,102066.06
2018-06-28T05:03:25.275Z,102072.97
2018-06-28T05:05:53.848Z,102066.02
2018-06-28T05:08:22.534Z,102060.36
2018-06-28T05:10:51.035Z,102056.63
2018-06-28T05:13:19.722Z,102061.22
2018-06-28T05:15:48.376Z,102062.55
2018-06-28T05:18:16.887Z,102056.63
2018-06-28T05:20:45.382Z,102049.84
2018-06-28T05:23:13.973Z,102046.23
2018-06-28T05:25:42.512Z,102040.13
2018-06-28T05:28:11.051Z,102046.30
2018-06-28T05:30:39.676Z,102048.30
2018-06-28T05:33:08.258Z,102041.53
2018-06-28T05:35:36.803Z,102026.64
2018-06-28T05:38:05.628Z,102036.38
2018-06-28T05:40:34.173Z,102037.22
2018-06-28T05:43:02.794Z,102030.80
2018-06-28T05:45:31.378Z,102032.66
2018-06-28T05:47:59.960Z,102039.67
2018-06-28T05:50:28.646Z,102042.48
2018-06-28T05:52:57.229Z,102031.02
2018-06-28T05:55:25.763Z,102030.30
2018-06-28T05:57:54.291Z,102026.53
2018-06-28T06:00:22.856Z,102035.83
2018-06-28T06:02:51.526Z,102029.64
2018-06-28T06:05:20.019Z,102033.55
2018-06-28T06:07:48.595Z,102034.77
2018-06-28T06:10:17.285Z,102034.76
2018-06-28T06:12:45.752Z,102040.77
2018-06-28T06:15:14.379Z,102039.92
2018-06-28T06:17:42.909Z,102038.44
2018-06-28T06:20:11.495Z,102041.84
2018-06-28T06:22:40.076Z,102044.17
2018-06-28T06:25:08.704Z,102039.79
2018-06-28T06:27:37.332Z,102038.91
2018-06-28T06:30:06.763Z,102040.75
2018-06-28T06:32:35.355Z,102034.61
2018-06-28T06:35:04.066Z,102038.03
2018-06-28T06:37:33.021Z,102042.95
2018-06-28T06:40:02.031Z,102034.10
2018-06-28T06:42:30.629Z,102036.78
2018-06-28T06:44:59.210Z,102028.44
2018-06-28T06:47:27.793Z,102023.78
2018-06-28T06:49:56.327Z,102027.32
2018-06-28T06:52:24.902Z,102027.16
2018-06-28T06:54:53.458Z,102029.70
2018-06-28T06:57:22.227Z,102031.14
2018-06-28T06:59:50.912Z,102028.92
2018-06-28T07:02:19.519Z,102022.66
2018-06-28T07:04:48.098Z,102025.54
2018-06-28T07:07:16.624Z,102026.63
2018-06-28T07:09:45.250Z,102016.70
2018-06-28T07:12:13.929Z,102013.52
2018-06-28T07:14:42.460Z,102010.18
2018-06-28T07:17:11.607Z,102002.86
2018-06-28T07:19:40.394Z,102002.55
2018-06-28T07:22:08.907Z,102005.03
2018-06-28T07:24:37.459Z,102011.99
2018-06-28T07:27:06.041Z,102005.59
2018-06-28T07:29:34.615Z,102009.11
2018-06-28T07:32:03.107Z,102006.14
2018-06-28T07:34:31.596Z,102009.92
2018-06-28T07:37:00.195Z,102009.01
2018-06-28T07:39:28.853Z,102011.36
2018-06-28T07:41:57.385Z,101995.61
2018-06-28T07:44:25.888Z,101998.31
2018-06-28T07:46:54.561Z,101995.96
2018-06-28T07:49:23.123Z,101999.75
2018-06-28T07:51:51.874Z,102001.09
2018-06-28T07:54:20.502Z,102000.75
2018-06-28T07:56:49.038Z,101993.08
2018-06-28T07:59:17.539Z,101991.03
2018-06-28T08:01:46.080Z,101990.38
2018-06-28T08:04:14.682Z,101994.22
2018-06-28T08:06:43.265Z,101998.94
2018-06-28T08:09:11.755Z,101988.48
2018-06-28T08:11:40.431Z,101987.08
2018-06-28T08:14:09.066Z,101990.72
2018-06-28T08:16:37.567Z,101992.23
2018-06-28T08:19:06.183Z,101990.66
2018-06-28T08:21:34.921Z,101986.69
2018-06-28T08:24:03.447Z,101992.28
2018-06-28T08:26:31.947Z,101982.05
2018-06-28T08:29:00.512Z,101928.14
2018-06-28T08:31:29.094Z,101984.13
2018-06-28T08:33:57.595Z,101991.55
2018-06-28T08:36:26.163Z,101988.88
2018-06-28T08:38:54.676Z,101985.97
2018-06-28T08:41:23.488Z,101982.50
2018-06-28T08:43:52.128Z,101979.94
2018-06-28T08:46:20.631Z,101980.31
2018-06-28T08:48:49.255Z,101966.93
2018-06-28T08:51:17.962Z,101972.78
2018-06-28T08:53:46.517Z,101972.53
2018-06-28T08:56:15.128Z,101975.16
2018-06-28T08:58:43.631Z,101970.67
2018-06-28T09:01:12.235Z,101969.67
2018-06-28T09:03:40.733Z,101965.04
2018-06-28T09:06:09.462Z,101966.67
2018-06-28T09:08:38.088Z,101964.64
2018-06-28T09:11:06.932Z,101962.48
2018-06-28T09:13:35.520Z,101964.91
2018-06-28T09:16:04.098Z,101955.64
2018-06-28T09:18:32.663Z,101957.34
2018-06-28T09:21:01.263Z,101969.36
2018-06-28T09:23:29.949Z,101962.59
2018-06-28T09:25:58.555Z,101955.84
2018-06-28T09:28:27.209Z,101952.59
2018-06-28T09:30:55.907Z,101949.63
2018-06-28T09:33:24.615Z,101938.05
2018-06-28T09:35:53.125Z,101941.63
2018-06-28T09:38:21.591Z,101941.94
2018-06-28T09:40:50.183Z,101943.47
2018-06-28T09:43:18.819Z,101939.11
2018-06-28T09:45:47.399Z,101940.95
2018-06-28T09:48:15.982Z,101938.45
2018-06-28T09:50:44.568Z,101936.05
2018-06-28T09:53:13.148Z,101933.70
2018-06-28T09:55:41.715Z,101934.92
2018-06-28T09:58:10.312Z,101934.05
2018-06-28T10:00:45.703Z,101933.87
2018-06-28T10:03:15.439Z,101933.45
2018-06-28T10:05:44.095Z,101928.45
2018-06-28T10:08:13.149Z,101929.89
2018-06-28T10:10:41.728Z,101934.38
2018-06-28T10:13:10.218Z,101930.34
2018-06-28T10:15:38.778Z,101923.73
2018-06-28T10:18:07.440Z,101919.06
2018-06-28T10:20:36.049Z,101919.33
2018-06-28T10:23:04.643Z,101920.45
2018-06-28T10:25:33.171Z,101920.45
2018-06-28T10:28:01.653Z,101918.08
2018-06-28T10:30:30.227Z,101907.65
2018-06-28T10:32:58.711Z,101906.26
2018-06-28T10:35:27.249Z,101901.48
2018-06-28T10:37:55.776Z,101898.86
2018-06-28T10:40:24.327Z,101891.78
2018-06-28T10:42:52.951Z,101888.20
2018-06-28T10:45:21.474Z,101896.17
2018-06-28T10:47:50.062Z,101883.98
2018-06-28T10:50:18.695Z,101893.18
2018-06-28T10:52:47.201Z,101885.77
2018-06-28T10:55:15.715Z,101883.08
2018-06-28T10:57:44.395Z,101880.25
2018-06-28T11:00:12.934Z,101876.80
2018-06-28T11:02:41.508Z,101879.45
2018-06-28T11:05:10.142Z,101885.94
2018-06-28T11:07:38.658Z,101878.86
2018-06-28T11:10:07.595Z,101873.63
2018-06-28T11:12:36.198Z,101878.40
2018-06-28T11:15:05.451Z,101870.05
2018-06-28T11:17:33.942Z,101867.14
2018-06-28T11:20:02.512Z,101866.42
2018-06-28T11:22:31.041Z,101867.03
2018-06-28T11:24:59.570Z,101856.20
2018-06-28T11:27:28.215Z,101857.05
2018-06-28T11:29:56.795Z,101849.39
2018-06-28T11:32:25.442Z,101850.19
2018-06-28T11:34:54.058Z,101850.28
2018-06-28T11:37:23.154Z,101842.12
2018-06-28T11:39:51.737Z,101839.47
2018-06-28T11:42:20.238Z,101841.13
2018-06-28T11:44:48.746Z,101834.66
2018-06-28T11:47:17.282Z,101826.70
2018-06-28T11:49:45.778Z,101828.78
2018-06-28T11:52:14.351Z,101763.30
2018-06-28T11:54:42.926Z,101819.19
2018-06-28T11:57:11.447Z,101822.27
2018-06-28T11:59:39.991Z,101821.95
2018-06-28T12:02:08.625Z,101819.87
2018-06-28T12:04:37.256Z,101811.59
2018-06-28T12:07:05.774Z,101810.08
2018-06-28T12:09:34.272Z,101804.88
2018-06-28T12:12:02.771Z,101803.94
2018-06-28T12:14:31.281Z,101801.66
2018-06-28T12:16:59.817Z,101794.58
2018-06-28T12:19:28.331Z,101795.41
2018-06-28T12:21:56.839Z,101803.38
2018-06-28T12:24:25.356Z,101793.31
2018-06-28T12:26:53.927Z,101790.34
2018-06-28T12:29:22.577Z,101788.92
2018-06-28T12:31:51.115Z,101780.63
2018-06-28T12:34:19.743Z,101776.66
2018-06-28T12:36:48.247Z,101778.77
2018-06-28T12:39:16.883Z,101782.37
2018-06-28T12:41:45.327Z,101781.66
2018-06-28T12:44:13.932Z,101782.06
2018-06-28T12:47:57.102Z,101782.71
2018-06-28T12:50:25.714Z,101774.96
2018-06-28T12:53:04.455Z,101763.71
2018-06-28T12:56:42.947Z,101758.64
2018-06-28T12:59:12.841Z,101760.91
2018-06-28T13:01:41.363Z,101753.18
2018-06-28T13:04:09.987Z,101751.77
2018-06-28T13:06:38.532Z,101748.91
2018-06-28T13:09:12.498Z,101744.41
2018-06-28T13:11:40.987Z,101739.81
2018-06-28T13:14:09.892Z,101736.45
2018-06-28T13:16:38.548Z,101729.44
2018-06-28T13:19:07.056Z,101721.77
2018-06-28T13:21:35.639Z,101719.94
2018-06-28T13:24:04.387Z,101721.59
2018-06-28T13:26:32.946Z,101716.81
2018-06-28T13:29:01.531Z,101705.81
2018-06-28T13:31:30.044Z,101708.37
2018-06-28T13:33:58.634Z,101698.25
2018-06-28T13:36:27.217Z,101689.49
2018-06-28T13:38:55.904Z,101693.33
2018-06-28T13:41:24.554Z,101690.64
2018-06-28T13:43:53.066Z,101690.97
2018-06-28T13:46:21.666Z,101689.10
2018-06-28T13:48:50.232Z,101692.32
2018-06-28T13:51:19.020Z,101685.20
2018-06-28T13:53:47.543Z,101685.05
2018-06-28T13:56:16.089Z,101673.39
2018-06-28T13:58:45.323Z,101669.36
2018-06-28T14:01:14.069Z,101665.91
2018-06-28T14:03:42.624Z,101667.25
2018-06-28T14:06:11.238Z,101663.79
2018-06-28T14:08:39.751Z,101667.73
2018-06-28T14:11:08.400Z,101658.46
2018-06-28T14:13:36.988Z,101646.92
2018-06-28T14:16:06.579Z,101650.28
2018-06-28T14:18:35.268Z,101641.81
2018-06-28T14:21:03.888Z,101634.09
2018-06-28T14:23:33.499Z,101626.66
2018-06-28T14:26:01.987Z,101626.16
2018-06-28T14:28:30.528Z,101632.09
2018-06-28T14:30:59.062Z,101623.29
2018-06-28T14:33:27.594Z,101621.96
2018-06-28T14:35:56.130Z,101627.78
2018-06-28T14:38:24.637Z,101622.98
2018-06-28T14:40:53.258Z,101618.75
2018-06-28T14:43:21.763Z,101624.67
2018-06-28T14:45:50.403Z,101616.84
2018-06-28T14:48:19.397Z,101617.98
2018-06-28T14:50:47.902Z,101597.47
2018-06-28T14:53:16.534Z,101581.81
2018-06-28T14:55:44.988Z,101582.14
2018-06-28T14:58:13.626Z,101579.55
2018-06-28T15:00:42.192Z,101570.27
2018-06-28T15:03:10.671Z,101571.29
2018-06-28T15:05:39.272Z,101569.61
2018-06-28T15:08:07.854Z,101558.09
2018-06-28T15:10:36.403Z,101563.20
2018-06-28T15:13:05.201Z,101563.81
2018-06-28T15:15:34.018Z,101560.53
2018-06-28T15:18:02.759Z,101562.04
2018-06-28T15:20:31.605Z,101556.29
2018-06-28T15:23:00.362Z,101554.61
2018-06-28T15:25:29.111Z,101554.94
2018-06-28T15:27:58.021Z,101543.23
2018-06-28T15:30:26.653Z,101540.30
2018-06-28T15:32:55.494Z,101541.34
2018-06-28T15:35:24.220Z,101539.33
2018-06-28T15:37:53.611Z,101543.06
2018-06-28T15:40:23.127Z,101528.16
2018-06-28T15:42:52.220Z,101522.07
2018-06-28T15:45:20.968Z,101520.34
2018-06-28T15:47:50.214Z,101508.43
2018-06-28T15:50:18.990Z,101503.00
2018-06-28T15:52:47.934Z,101495.73
2018-06-28T15:55:16.601Z,101494.54
2018-06-28T15:57:45.294Z,101483.33
2018-06-28T16:00:14.004Z,101487.08
2018-06-28T16:02:42.713Z,101484.36
2018-06-28T16:05:11.350Z,101474.02
2018-06-28T16:07:40.046Z,101465.38
2018-06-28T16:10:08.778Z,101464.89
2018-06-28T16:12:37.490Z,101468.09
2018-06-28T16:15:06.462Z,101475.53
2018-06-28T16:17:35.243Z,101465.70
2018-06-28T16:20:04.076Z,101463.66
2018-06-28T16:22:32.759Z,101455.53
2018-06-28T16:25:01.522Z,101464.68
2018-06-28T16:27:30.342Z,101456.55
2018-06-28T16:29:59.156Z,101449.12
2018-06-28T16:32:27.972Z,101444.19
2018-06-28T16:34:56.756Z,101442.64
2018-06-28T16:37:25.578Z,101440.28
2018-06-28T16:39:54.380Z,101439.26
2018-06-28T16:42:23.229Z,101433.48
2018-06-28T16:44:52.042Z,101428.06
2018-06-28T16:47:20.890Z,101423.33
2018-06-28T16:49:49.653Z,101421.03
2018-06-28T16:52:18.518Z,101416.09
2018-06-28T16:54:47.268Z,101417.25
2018-06-28T16:57:16.166Z,101409.66
2018-06-28T16:59:44.841Z,101406.30
2018-06-28T17:02:13.551Z,101404.45
2018-06-28T17:04:42.300Z,101391.56
2018-06-28T17:07:11.035Z,101395.41
2018-06-28T17:09:39.738Z,101396.43
2018-06-28T17:12:08.475Z,101399.19
2018-06-28T17:14:37.260Z,101388.77
2018-06-28T17:17:06.003Z,101401.00
2018-06-28T17:19:34.750Z,101405.75
2018-06-28T17:22:03.624Z,101404.09
2018-06-28T17:24:32.361Z,101396.30
2018-06-28T17:27:01.182Z,101392.26
2018-06-28T17:29:30.040Z,101386.50
2018-06-28T17:31:58.880Z,101381.76
2018-06-28T17:34:27.621Z,101369.88
2018-06-28T17:36:56.317Z,101361.27
2018-06-28T17:39:25.038Z,101365.16
2018-06-28T17:41:53.838Z,101353.61
2018-06-28T17:44:22.520Z,101360.73
2018-06-28T17:46:51.229Z,101357.17
2018-06-28T17:49:20.080Z,101344.63
2018-06-28T17:51:48.806Z,101341.02
2018-06-28T17:54:17.598Z,101344.69
2018-06-28T17:56:46.404Z,101341.28
2018-06-28T17:59:15.269Z,101328.69
2018-06-28T18:01:44.210Z,101333.39
2018-06-28T18:04:12.996Z,101335.40
2018-06-28T18:06:41.747Z,101320.77
2018-06-28T18:09:10.815Z,101315.73
2018-06-28T18:11:40.304Z,101313.14
2018-06-28T18:14:09.381Z,101306.05
2018-06-28T18:16:38.486Z,101300.25
2018-06-28T18:19:07.412Z,101288.64
2018-06-28T18:21:36.190Z,101294.52
2018-06-28T18:24:05.013Z,101291.09
2018-06-28T18:26:33.807Z,101290.16
2018-06-28T18:29:02.600Z,101291.75
2018-06-28T18:31:31.424Z,101287.65
2018-06-28T18:34:00.293Z,101284.87
2018-06-28T18:36:29.095Z,101274.50
2018-06-28T18:38:58.005Z,101277.64
2018-06-28T18:41:26.876Z,101272.77
2018-06-28T18:43:55.662Z,101281.05
2018-06-28T18:46:24.443Z,101281.17
2018-06-28T18:48:53.447Z,101283.59
2018-06-28T18:51:22.388Z,101291.92
2018-06-28T18:53:51.279Z,101284.88
2018-06-28T18:56:20.231Z,101282.27
2018-06-28T18:58:48.960Z,101272.10
2018-06-28T19:01:18.744Z,101275.05
2018-06-28T19:03:47.469Z,101271.18
2018-06-28T19:06:17.105Z,101264.39
2018-06-28T19:08:45.793Z,101266.40
2018-06-28T19:11:14.534Z,101265.05
2018-06-28T19:13:48.315Z,101255.44
2018-06-28T19:16:22.356Z,101248.91
2018-06-28T19:18:50.919Z,101250.20
2018-06-28T19:21:24.737Z,101243.29
2018-06-28T19:23:53.920Z,101236.59
2018-06-28T19:26:22.521Z,101228.23
2018-06-28T19:28:51.027Z,101223.55
2018-06-28T19:31:24.702Z,101226.28
2018-06-28T19:33:53.283Z,101220.80
2018-06-28T19:36:21.775Z,101225.06
2018-06-28T19:38:55.627Z,101225.86
2018-06-28T19:41:29.414Z,101226.07
2018-06-28T19:43:57.961Z,101222.66
2018-06-28T19:46:26.588Z,101226.50
2018-06-28T19:48:55.094Z,101219.64
2018-06-28T19:51:28.923Z,101213.76
2018-06-28T19:53:57.511Z,101216.42
2018-06-28T19:56:26.071Z,101224.55
2018-06-28T19:58:54.835Z,101229.27
2018-06-28T20:01:28.735Z,101227.61
2018-06-28T20:04:02.659Z,101218.20
2018-06-28T20:06:31.292Z,101224.94
2018-06-28T20:08:59.912Z,101228.90
2018-06-28T20:11:28.491Z,101236.81
2018-06-28T20:14:02.301Z,101238.01
2018-06-28T20:16:36.104Z,101233.55
2018-06-28T20:19:10.014Z,101230.67
2018-06-28T20:21:38.589Z,101235.37
2018-06-28T20:24:07.543Z,101228.44
2018-06-28T20:26:41.381Z,101228.86
2018-06-28T20:29:15.301Z,101231.45
2018-06-28T20:31:49.159Z,101255.45
2018-06-28T20:34:17.786Z,101235.71
2018-06-28T20:36:46.323Z,101245.38
2018-06-28T20:39:14.919Z,101237.23
2018-06-28T20:41:43.743Z,101238.84
2018-06-28T20:44:12.427Z,101241.70
2018-06-28T20:46:40.959Z,101251.48
2018-06-28T20:49:09.497Z,101257.07
2018-06-28T20:51:38.119Z,101243.69
2018-06-28T20:54:06.930Z,101241.91
2018-06-28T20:56:35.483Z,101240.11
2018-06-28T20:59:04.138Z,101246.82
2018-06-28T21:01:32.791Z,101242.31
2018-06-28T21:04:01.314Z,101238.55
2018-06-28T21:06:30.083Z,101232.48
2018-06-28T21:08:58.603Z,101232.50
2018-06-28T21:11:27.191Z,101235.59
2018-06-28T21:13:55.795Z,101235.59
2018-06-28T21:16:24.308Z,101230.48
2018-06-28T21:18:52.877Z,101234.02
2018-06-28T21:21:21.597Z,101225.99
2018-06-28T21:23:50.275Z,101222.59
2018-06-28T21:26:18.755Z,101222.59
2018-06-28T21:28:47.317Z,101220.52
2018-06-28T21:31:15.863Z,101218.42
2018-06-28T21:33:44.498Z,101210.88
2018-06-28T21:36:13.167Z,101209.31
2018-06-28T21:38:41.691Z,101208.82
2018-06-28T21:41:10.211Z,101209.31
2018-06-28T21:43:38.831Z,101213.72
2018-06-28T21:46:07.414Z,101205.92
2018-06-28T21:48:35.996Z,101200.43
2018-06-28T21:51:04.542Z,101197.64
2018-06-28T21:53:33.094Z,101199.83
2018-06-28T21:56:01.607Z,101194.60
2018-06-28T21:58:30.186Z,101203.48
2018-06-28T22:00:58.811Z,101203.72
2018-06-28T22:03:27.392Z,101200.33
2018-06-28T22:05:56.074Z,101199.83
2018-06-28T22:08:24.580Z,101199.61
2018-06-28T22:10:53.111Z,101205.80
2018-06-28T22:13:21.677Z,101203.95
2018-06-28T22:15:50.406Z,101206.28
2018-06-28T22:18:18.935Z,101193.25
2018-06-28T22:20:47.572Z,101207.08
2018-06-28T22:23:16.147Z,101204.64
2018-06-28T22:25:44.665Z,101204.88
2018-06-28T22:28:13.330Z,101209.00
2018-06-28T22:30:42.006Z,101208.50
2018-06-28T22:33:10.626Z,101209.59
2018-06-28T22:35:39.280Z,101212.74
2018-06-28T22:38:08.027Z,101214.34
2018-06-28T22:40:36.548Z,101210.57
2018-06-28T22:43:05.125Z,101216.75
2018-06-28T22:45:33.635Z,101218.32
2018-06-28T22:48:02.203Z,101223.55
2018-06-28T22:50:31.600Z,101156.67
2018-06-28T22:53:00.131Z,101214.41
2018-06-28T22:55:28.626Z,101215.00
2018-06-28T22:57:57.142Z,101220.23
2018-06-28T23:00:29.598Z,101223.13
2018-06-28T23:02:58.138Z,101224.31
2018-06-28T23:05:26.760Z,101221.28
2018-06-28T23:07:55.335Z,101230.87
2018-06-28T23:10:24.107Z,101228.89
2018-06-28T23:12:52.627Z,101231.33
2018-06-28T23:15:21.128Z,101240.69
2018-06-28T23:17:49.686Z,101247.23
2018-06-28T23:20:18.269Z,101238.97
2018-06-28T23:22:50.025Z,101241.76
2018-06-28T23:25:19.017Z,101249.27
2018-06-28T23:27:48.275Z,101246.84
2018-06-28T23:30:17.107Z,101247.70
2018-06-28T23:32:45.631Z,101258.52
2018-06-28T23:35:14.235Z,101264.00
2018-06-28T23:37:42.747Z,101251.38
2018-06-28T23:40:11.336Z,101266.44
2018-06-28T23:42:40.430Z,101267.19
2018-06-28T23:45:09.798Z,101265.50
2018-06-28T23:47:38.447Z,101267.55
2018-06-28T23:50:08.210Z,101264.29
2018-06-28T23:52:36.743Z,101272.20
2018-06-28T23:55:06.165Z,101274.98
2018-06-28T23:57:34.796Z,101279.12
